Jepson Prairie Reserve, California Weather observations

Data are for 10 minute period ending at time listed.
 Day   Time   Solar   Ave.   Ave.  Ave.  Vector  Max.   Baro.   Total    
  of    of     Rad.   Air    Rel.  Wind   Wind   Wind  Press.  Precip.   
Year   Day            Temp.  Hum.  Speed  Dir.   Gust                    
2015   (PST)  Kw/m2    F      %     mph   deg.    mph    mb.     in.     
-------------------------------------------------------------------------
  26    9:10   0.13   43.1   100    6.2    34    11.5   1016.3    0.00 
  26    9:20   0.12   43.1   100    8.6    16    11.1   1016.3    0.00 
  26    9:30   0.13   43.1   100    8.8     6    11.6   1016.3    0.00 
  26    9:40   0.10   43.2   100    8.5     1    12.4   1016.3    0.00 
  26    9:50   0.21   43.7   100    8.8    13    11.5   1016.3    0.00 
  26   10:00   0.28   44.5   100    9.8    23    12.9   1016.3    0.00 
  26   10:10   0.16   44.5   100    9.4    30    12.5   1016.3    0.00 
  26   10:20   0.22   44.7   100    6.8    33     9.2   1016.3    0.00 
  26   10:30   0.09   45.5   100    6.1    30     8.8   1016.3    0.00 
  26   10:40   0.14   45.8   100    7.1    21     9.7   1015.9    0.00 
  26   10:50   0.17   46.3    99    6.9    20     9.5   1015.9    0.00 
  26   11:00   0.28   47.4    98    5.4    56     7.1   1016.3    0.00 
  26   11:10   0.48   48.9    96    5.8    36     8.2   1015.9    0.00 
  26   11:20   0.52   49.8    93    6.0    28     9.0   1015.6    0.00 
  26   11:30   0.39   50.9    91    4.3    12     7.5   1015.6    0.00 
  26   11:40   0.42   51.3    90    2.3    30     5.1   1015.6    0.00 
  26   11:50   0.47   53.0    87    2.2    39     3.5   1015.6    0.00 
  26   12:00   0.53   54.0    85    1.7     2     5.0   1015.2    0.00 
  26   12:10   0.49   55.4    82    2.4   339     8.3   1015.2    0.00 
  26   12:20   0.58   56.1    76    7.0   344    10.4   1014.9    0.00 
  26   12:30   0.57   56.4    74    8.9   339    14.0   1014.6    0.00 
  26   12:40   0.55   57.6    71    8.5   339    12.8   1014.6    0.00 
  26   12:50   0.52   58.6    70    6.1   341     8.9   1014.6    0.00 
  26   13:00   0.51   59.5    67    6.9   341    10.2   1014.2    0.00 
  26   13:10   0.49   60.9    68    4.6   360     6.0   1014.2    0.00 
  26   13:20   0.48   61.1    66    2.4     9     4.6   1014.2    0.00 
  26   13:30   0.47   61.3    63    2.6    29     6.4   1014.2    0.00 
  26   13:40   0.46   62.1    61    2.8    10     7.1   1013.9    0.00 
  26   13:50   0.45   61.3    61    3.9    21     9.1   1013.9    0.00 
  26   14:00   0.45   61.2    62    3.8    10     6.9   1013.5    0.00 
  26   14:10   0.44   61.6    61    4.5    18     7.5   1013.5    0.00 
  26   14:20   0.42   63.0    60    2.7    14     5.2   1013.5    0.00 
  26   14:30   0.40   63.4    59    2.8     9     6.1   1013.2    0.00 
  26   14:40   0.41   64.1    58    2.1     4     4.2   1013.2    0.00 
  26   14:50   0.31   65.6    56    1.6    26     4.0   1013.2    0.00 
  26   15:00   0.32   64.7    60    3.7    28     6.6   1013.2    0.00 
  26   15:10   0.30   64.9    57    2.9    67     5.4   1013.2    0.00 
  26   15:20   0.14   64.3    58    4.3    57     6.4   1013.2    0.00 
  26   15:30   0.14   63.6    62    5.5    50     6.4   1013.2    0.00 
  26   15:40   0.16   63.3    62    4.3    77     5.7   1013.2    0.00 
  26   15:50   0.10   63.3    62    5.3    95     7.4   1013.2    0.00 
  26   16:00   0.06   61.2    69    7.2   107     8.1   1013.5    0.00 
  26   16:10   0.07   59.8    72    7.1    95     7.9   1013.5    0.00 
  26   16:20   0.06   59.0    74    5.0    81     6.7   1013.2    0.00 
  26   16:30   0.06   57.8    77    6.2    83     7.5   1013.2    0.00 
  26   16:40   0.05   56.9    80    6.8    89     7.8   1013.2    0.00 
  26   16:50   0.04   56.7    81    5.6    94     6.0   1013.2    0.00 
  26   17:00   0.03   55.8    82    6.7   104     7.6   1013.2    0.00 
  26   17:10   0.01   55.2    82    7.4   107     8.1   1013.2    0.00 
  26   17:20   0.01   54.3    85    7.7   110     8.3   1013.2    0.00 
  26   17:30   0.00   53.7    87    7.9   112     8.6   1013.2    0.00 
  26   17:40   0.00   53.5    88    8.1   108    10.0   1013.2    0.00 
  26   17:50   0.00   53.7    87    9.3   110    10.8   1013.2    0.00 
  26   18:00   0.00   53.4    87    8.7   109     9.6   1013.2    0.00 
  26   18:10   0.00   52.8    88    7.8   119     9.8   1013.2    0.00 
  26   18:20   0.00   52.8    87    5.8   117     8.0   1013.2    0.00 
  26   18:30   0.00   52.6    87    5.4   104     6.2   1013.2    0.00 
  26   18:40   0.00   52.2    88    5.8   116     6.9   1013.2    0.00 
  26   18:50   0.00   51.8    89    5.5   120     6.8   1013.5    0.00 
  26   19:00   0.00   51.6    90    2.6   129     3.4   1013.2    0.00 
  26   19:10   0.00   51.6    90    3.9   110     5.1   1013.5    0.00 
  26   19:20   0.00   50.7    90    4.6   104     5.3   1013.2    0.00 
  26   19:30   0.00   50.0    93    4.0   101     4.8   1013.2    0.00 
  26   19:40   0.00   49.7    93    4.4    92     5.0   1013.2    0.00 
  26   19:50   0.00   49.7    93    4.5   110     6.1   1013.5    0.00 
  26   20:00   0.00   49.9    91    3.3   112     4.9   1013.2    0.00 
  26   20:10   0.00   50.0    91    2.8   105     3.9   1013.2    0.00 
  26   20:20   0.00   50.3    89    3.4   108     4.7   1013.5    0.00 
  26   20:30   0.00   50.2    90    4.0    85     4.9   1013.5    0.00 
  26   20:40   0.00   51.2    90    2.9    59     3.1   1013.2    0.00 
  26   20:50   0.00   51.7    90    4.0    67     6.0   1013.2    0.00 
  26   21:00   0.00   50.3    91    6.0    71     7.9   1013.2    0.00 
  26   21:10   0.00   49.7    92    6.0    79     6.5   1013.2    0.00 
  26   21:20   0.00   49.3    93    4.8    71     6.4   1013.2    0.00 
  26   21:30   0.00   50.1    93    3.8    54     4.6   1012.9    0.00 
  26   21:40   0.00   50.5    92    3.8    65     4.8   1012.9    0.00 
  26   21:50   0.00   49.9    91    4.8    78     5.2   1012.9    0.00 
  26   22:00   0.00   49.5    92    5.0    77     6.0   1012.9    0.00 
  26   22:10   0.00   48.9    94    6.2    67     7.0   1012.9    0.00 
  26   22:20   0.00   49.2    94    5.2    59     6.4   1012.9    0.00 
  26   22:30   0.00   49.9    93    3.4    50     5.2   1012.9    0.00 
  26   22:40   0.00   49.3    92    4.9    57     5.4   1013.2    0.00 
  26   22:50   0.00   48.3    94    5.7    59     6.0   1013.2    0.00 
  26   23:00   0.00   48.5    94    5.6    58     6.1   1013.5    0.00 
  26   23:10   0.00   48.3    94    6.8    66     7.6   1013.5    0.00 
  26   23:20   0.00   48.1    95    6.9    56     7.8   1013.5    0.00 
  26   23:30   0.00   48.7    96    6.2    44     7.0   1013.5    0.00 
  26   23:40   0.00   49.3    94    6.4    48     7.3   1013.5    0.00 
  26   23:50   0.00   49.4    94    4.7    42     5.4   1013.5    0.00 
  27    0:00   0.00   48.9    94    4.9    51     5.8   1013.5    0.00 
  27    0:10   0.00   47.6    95    6.3    66     6.8   1013.9    0.00 
  27    0:20   0.00   46.6    96    6.4    70     6.9   1013.9    0.00 
  27    0:30   0.00   46.4    97    4.3    58     5.7   1013.9    0.00 
  27    0:40   0.00   46.5    97    4.1    63     5.3   1013.9    0.00 
  27    0:50   0.00   46.4    97    4.8    86     5.6   1013.9    0.00 
  27    1:00   0.00   46.1    97    2.6   177     3.7   1013.9    0.00 
  27    1:10   0.00   46.6    98    2.6   233     3.1   1014.2    0.00 
  27    1:20   0.00   46.6    97    4.0   251     5.1   1014.2    0.00 
  27    1:30   0.00   46.6    98    3.3   251     4.9   1014.2    0.00 
  27    1:40   0.00   46.6    97    2.9   214     3.7   1014.6    0.00 
  27    1:50   0.00   46.7    98    3.6   185     4.3   1014.9    0.00 
  27    2:00   0.00   46.9    98    2.5   178     3.1   1014.9    0.00 
  27    2:10   0.00   47.2    97    2.7   157     3.3   1015.2    0.00 
  27    2:20   0.00   47.0    97    3.1   191     3.7   1015.2    0.00 
  27    2:30   0.00   46.8    97    2.1   199     3.1   1015.6    0.00 
  27    2:40   0.00   46.9    97    2.4   213     3.5   1015.6    0.00 
  27    2:50   0.00   47.3    97    1.2   209     2.3   1015.6    0.00 
  27    3:00   0.00   47.6    96    0.6   209     1.5   1015.6    0.00 
  27    3:10   0.00   47.5    96    1.8   107     2.9   1015.6    0.00 
  27    3:20   0.00   47.0    97    2.5   106     3.4   1015.9    0.00 
  27    3:30   0.00   46.8    97    1.8   124     3.1   1015.9    0.00 
  27    3:40   0.00   47.2    97    1.0   119     2.3   1015.9    0.00 
  27    3:50   0.00   47.4    96    2.9    69     3.7   1015.9    0.00 
  27    4:00   0.00   47.3    96    5.6    77     7.2   1015.9    0.00 
  27    4:10   0.00   47.5    96    7.2    94     8.3   1016.3    0.00 
  27    4:20   0.00   47.6    96    8.1   106     9.1   1016.3    0.00 
  27    4:30   0.00   47.9    95    9.3   115    10.7   1016.3    0.00 
  27    4:40   0.00   48.5    93    9.3   119    10.7   1016.3    0.00 
  27    4:50   0.00   48.4    93    8.2   120     9.7   1016.3    0.00 
  27    5:00   0.00   48.2    94    8.0   123    10.4   1016.3    0.00 
  27    5:10   0.00   48.2    94    8.4   118     9.4   1016.6    0.00 
  27    5:20   0.00   48.2    94    7.5   122     9.1   1016.6    0.00 
  27    5:30   0.00   48.1    94    6.6   116     9.4   1016.6    0.00 
  27    5:40   0.00   48.1    94    6.9    98     8.7   1016.9    0.00 
  27    5:50   0.00   48.4    94    7.2   100     8.8   1016.9    0.00 
  27    6:00   0.00   48.8    92    8.1   108     9.4   1017.3    0.00 
  27    6:10   0.00   48.9    92    8.9   115    10.7   1017.3    0.00 
  27    6:20   0.00   49.2    92    7.9   116     9.9   1017.6    0.00 
  27    6:30   0.00   49.2    92    7.2   112     9.4   1017.6    0.00 
  27    6:40   0.00   49.2    92    6.4   100     8.3   1017.6    0.00 
  27    6:50   0.00   49.1    92    5.5   104     7.2   1017.6    0.00 
  27    7:00   0.00   48.9    92    5.2   117     6.1   1018.0    0.00 
  27    7:10   0.00   48.8    93    4.6   117     5.7   1018.0    0.00 
  27    7:20   0.00   48.5    93    4.5   118     5.0   1018.0    0.00 
  27    7:30   0.00   48.3    94    4.0   116     4.7   1018.3    0.00 
  27    7:40   0.01   48.2    95    4.5    84     7.7   1018.6    0.00 
  27    7:50   0.01   48.3    95    4.5    97     6.9   1018.6    0.00 
  27    8:00   0.02   48.7    94    2.1   134     4.1   1018.6    0.00 
  27    8:10   0.03   48.8    94    2.9   145     4.0   1019.0    0.00 
  27    8:20   0.03   49.1    94    2.6   130     3.4   1019.0    0.00 
  27    8:30   0.04   49.3    94    3.4   147     4.7   1019.3    0.00 
  27    8:40   0.06   49.7    93    1.5    44     4.2   1019.3    0.00 
  27    8:50   0.07   50.2    92    4.5   140     6.1   1019.3    0.00 
  27    9:00   0.07   50.8    92    2.3   248     4.2   1019.6    0.00 

Return to Jepson Prairie Reserve graphs page.


Western Regional Climate Center,wrcc@dri.edu